createdAt,value
2023-05-10T00:00:26.240Z,6.10
2023-05-10T00:00:58.744Z,7.20
2023-05-10T00:01:31.201Z,6.20
2023-05-10T00:02:03.675Z,6.70
2023-05-10T00:02:36.186Z,6.30
2023-05-10T00:03:08.726Z,6.90
2023-05-10T00:03:41.144Z,7.20
2023-05-10T00:04:13.666Z,8.40
2023-05-10T00:04:45.956Z,8.40
2023-05-10T00:05:18.379Z,7.50
2023-05-10T00:05:50.821Z,7.30
2023-05-10T00:06:23.256Z,6.60
2023-05-10T00:06:55.705Z,5.80
2023-05-10T00:07:28.164Z,7.90
2023-05-10T00:08:00.702Z,10.80
2023-05-10T00:08:33.162Z,8.30
2023-05-10T00:09:05.640Z,7.10
2023-05-10T00:09:38.045Z,7.70
2023-05-10T00:10:10.478Z,8.70
2023-05-10T00:10:42.940Z,9.40
2023-05-10T00:11:15.376Z,8.20
2023-05-10T00:11:47.826Z,7.60
2023-05-10T00:12:20.245Z,7.70
2023-05-10T00:12:52.719Z,6.60
2023-05-10T00:13:25.239Z,7.10
2023-05-10T00:13:57.614Z,7.80
2023-05-10T00:14:30.048Z,7.20
2023-05-10T00:15:02.540Z,7.20
2023-05-10T00:15:35.018Z,9.70
2023-05-10T00:16:07.466Z,10.50
2023-05-10T00:16:39.996Z,8.50
2023-05-10T00:17:12.371Z,8.30
2023-05-10T00:17:44.829Z,8.60
2023-05-10T00:18:17.251Z,10.80
2023-05-10T00:18:49.703Z,9.30
2023-05-10T00:19:22.129Z,7.80
2023-05-10T00:19:54.652Z,8.00
2023-05-10T00:20:27.194Z,8.00
2023-05-10T00:20:59.609Z,8.70
2023-05-10T00:21:32.085Z,8.70
2023-05-10T00:22:04.540Z,10.00
2023-05-10T00:22:36.943Z,12.00
2023-05-10T00:23:09.408Z,11.90
2023-05-10T00:23:41.833Z,11.40
2023-05-10T00:24:14.334Z,11.50
2023-05-10T00:24:46.793Z,11.20
2023-05-10T00:25:19.217Z,10.30
2023-05-10T00:25:51.685Z,12.20
2023-05-10T00:26:24.320Z,10.70
2023-05-10T00:26:56.779Z,8.40
2023-05-10T00:27:29.305Z,9.20
2023-05-10T00:28:01.729Z,11.20
2023-05-10T00:28:34.153Z,10.40
2023-05-10T00:29:06.626Z,10.10
2023-05-10T00:29:39.068Z,9.30
2023-05-10T00:30:11.670Z,11.20
2023-05-10T00:30:44.156Z,11.20
2023-05-10T00:31:16.609Z,9.50
2023-05-10T00:31:49.061Z,9.70
2023-05-10T00:32:21.532Z,12.30
2023-05-10T00:32:54.097Z,12.00
2023-05-10T00:33:26.460Z,9.50
2023-05-10T00:33:59.116Z,10.60
2023-05-10T00:34:31.556Z,11.90
2023-05-10T00:35:04.011Z,12.80
2023-05-10T00:35:36.448Z,10.80
2023-05-10T00:36:08.905Z,8.30
2023-05-10T00:36:41.433Z,9.60
2023-05-10T00:37:13.867Z,11.60
2023-05-10T00:37:46.287Z,12.00
2023-05-10T00:38:18.736Z,13.80
2023-05-10T00:38:51.180Z,12.20
2023-05-10T00:39:23.919Z,9.80
2023-05-10T00:39:56.359Z,9.80
2023-05-10T00:40:28.841Z,10.60
2023-05-10T00:41:01.331Z,11.50
2023-05-10T00:41:33.749Z,10.60
2023-05-10T00:42:06.225Z,9.90
2023-05-10T00:42:38.644Z,10.30
2023-05-10T00:43:11.126Z,10.60
2023-05-10T00:43:43.591Z,10.20
2023-05-10T00:44:16.074Z,11.00
2023-05-10T00:44:48.510Z,12.10
2023-05-10T00:45:21.015Z,11.90
2023-05-10T00:45:53.502Z,11.00
2023-05-10T00:46:25.916Z,10.50
2023-05-10T00:46:58.375Z,10.70
2023-05-10T00:47:30.885Z,12.50
2023-05-10T00:48:03.368Z,12.00
2023-05-10T00:48:35.797Z,10.00
2023-05-10T00:49:08.247Z,10.50
2023-05-10T00:49:40.763Z,11.70
2023-05-10T00:50:13.307Z,12.50
2023-05-10T00:50:45.698Z,11.30
2023-05-10T00:51:18.194Z,11.80
2023-05-10T00:51:50.641Z,10.10
2023-05-10T00:52:23.102Z,10.40
2023-05-10T00:52:55.548Z,11.60
2023-05-10T00:53:28.044Z,11.60
2023-05-10T00:54:00.484Z,11.40
2023-05-10T00:54:32.922Z,10.00
2023-05-10T00:55:05.368Z,11.00
2023-05-10T00:55:37.810Z,13.10
2023-05-10T00:56:10.269Z,13.90
2023-05-10T00:56:42.684Z,9.60
2023-05-10T00:57:15.156Z,10.10
2023-05-10T00:57:47.588Z,12.50
2023-05-10T00:58:20.146Z,12.90
2023-05-10T00:58:52.569Z,11.40
2023-05-10T00:59:25.005Z,11.10
2023-05-10T00:59:57.411Z,11.50
2023-05-10T01:00:29.854Z,10.90
2023-05-10T01:01:02.342Z,10.70
2023-05-10T01:01:34.755Z,11.50
2023-05-10T01:02:07.190Z,11.40
2023-05-10T01:02:39.699Z,10.90
2023-05-10T01:03:12.244Z,10.40
2023-05-10T01:03:44.579Z,12.30
2023-05-10T01:04:17.032Z,12.90
2023-05-10T01:04:49.547Z,11.20
2023-05-10T01:05:22.040Z,12.30
2023-05-10T01:05:54.528Z,12.70
2023-05-10T01:06:26.966Z,12.90
2023-05-10T01:06:59.438Z,11.60
2023-05-10T01:07:31.887Z,11.30
2023-05-10T01:08:04.349Z,12.60
2023-05-10T01:08:36.789Z,12.90
2023-05-10T01:09:09.247Z,11.20
2023-05-10T01:09:41.738Z,11.10
2023-05-10T01:10:14.335Z,14.10
2023-05-10T01:10:46.692Z,13.40
2023-05-10T01:11:19.139Z,12.30
2023-05-10T01:11:51.599Z,15.40
2023-05-10T01:12:24.110Z,13.70
2023-05-10T01:12:56.553Z,11.30
2023-05-10T01:13:29.143Z,12.80
2023-05-10T01:14:01.539Z,11.70
2023-05-10T01:14:34.024Z,10.70
2023-05-10T01:15:06.463Z,11.30
2023-05-10T01:15:38.920Z,12.00
2023-05-10T01:16:11.503Z,11.20
2023-05-10T01:16:43.897Z,12.40
2023-05-10T01:17:16.500Z,13.30
2023-05-10T01:17:48.964Z,12.80
2023-05-10T01:18:21.471Z,12.50
2023-05-10T01:18:53.933Z,11.80
2023-05-10T01:19:26.392Z,11.00
2023-05-10T01:19:58.882Z,10.60
2023-05-10T01:20:31.413Z,10.90
2023-05-10T01:21:03.840Z,14.20
2023-05-10T01:21:36.294Z,15.50
2023-05-10T01:22:08.773Z,11.70
2023-05-10T01:22:41.205Z,10.10
2023-05-10T01:23:13.697Z,11.50
2023-05-10T01:23:46.140Z,10.80
2023-05-10T01:24:18.633Z,11.60
2023-05-10T01:24:51.046Z,8.90
2023-05-10T01:25:23.502Z,8.60
2023-05-10T01:25:55.972Z,10.20
2023-05-10T01:26:28.437Z,8.80
2023-05-10T01:27:00.904Z,9.00
2023-05-10T01:27:33.346Z,10.40
2023-05-10T01:28:05.824Z,10.10
2023-05-10T01:28:38.280Z,11.80
2023-05-10T01:29:10.741Z,13.50
2023-05-10T01:29:43.249Z,13.20
2023-05-10T01:30:16.247Z,12.30
2023-05-10T01:30:48.203Z,9.50
2023-05-10T01:31:20.768Z,8.40
2023-05-10T01:31:53.116Z,7.80
2023-05-10T01:32:25.611Z,6.60
2023-05-10T01:32:58.118Z,8.90
2023-05-10T01:33:30.538Z,9.70
2023-05-10T01:34:03.020Z,8.90
2023-05-10T01:34:35.481Z,8.80
2023-05-10T01:35:07.941Z,7.30
2023-05-10T01:35:40.397Z,6.60
2023-05-10T01:36:12.894Z,6.40
2023-05-10T01:36:45.365Z,6.90
2023-05-10T01:37:17.834Z,5.90
2023-05-10T01:37:50.334Z,5.30
2023-05-10T01:38:22.804Z,6.30
2023-05-10T01:38:55.270Z,6.10
2023-05-10T01:39:27.757Z,5.00
2023-05-10T01:40:00.228Z,5.80
2023-05-10T01:40:32.680Z,6.60
2023-05-10T01:41:05.170Z,6.50
2023-05-10T01:41:37.651Z,4.80
2023-05-10T01:42:10.181Z,3.50
2023-05-10T01:42:42.621Z,5.00
2023-05-10T01:43:15.122Z,8.00
2023-05-10T01:43:47.680Z,6.60
2023-05-10T01:44:20.146Z,5.20
2023-05-10T01:44:52.620Z,5.40
2023-05-10T01:45:25.074Z,5.50
2023-05-10T01:45:57.529Z,5.80
2023-05-10T01:46:30.019Z,6.20
2023-05-10T01:47:02.498Z,6.80
2023-05-10T01:47:34.919Z,5.50
2023-05-10T01:48:07.408Z,5.10
2023-05-10T01:48:39.852Z,4.90
2023-05-10T01:49:12.307Z,6.10
2023-05-10T01:49:44.762Z,5.10
2023-05-10T01:50:17.507Z,4.20
2023-05-10T01:50:49.824Z,3.70
2023-05-10T01:51:22.353Z,3.40
2023-05-10T01:51:54.832Z,4.40
2023-05-10T01:52:27.363Z,5.10
2023-05-10T01:52:59.822Z,4.00
2023-05-10T01:53:32.347Z,3.60
2023-05-10T01:54:04.800Z,3.60
2023-05-10T01:54:37.266Z,3.70
2023-05-10T01:55:09.732Z,3.20
2023-05-10T01:55:42.213Z,3.20
2023-05-10T01:56:14.785Z,3.70
2023-05-10T01:56:47.257Z,3.70
2023-05-10T01:57:19.761Z,3.50
2023-05-10T01:57:52.282Z,3.10
2023-05-10T01:58:24.749Z,3.50
2023-05-10T01:58:57.239Z,3.40
2023-05-10T01:59:29.710Z,3.00
2023-05-10T02:00:02.315Z,3.60
2023-05-10T02:00:34.785Z,2.80
2023-05-10T02:01:07.256Z,2.20
2023-05-10T02:01:39.775Z,2.50
2023-05-10T02:02:12.193Z,2.40
2023-05-10T02:02:44.691Z,2.30
2023-05-10T02:03:17.278Z,2.60
2023-05-10T02:03:49.679Z,2.60
2023-05-10T02:04:22.134Z,2.90
2023-05-10T02:04:54.667Z,2.70
2023-05-10T02:05:27.142Z,2.40
2023-05-10T02:05:59.690Z,2.50
2023-05-10T02:06:32.138Z,4.90
2023-05-10T02:07:04.598Z,5.70
2023-05-10T02:07:37.072Z,3.10
2023-05-10T02:08:09.614Z,2.30
2023-05-10T02:08:42.086Z,3.70
2023-05-10T02:09:14.575Z,3.70
2023-05-10T02:09:47.019Z,3.40
2023-05-10T02:10:19.602Z,3.50
2023-05-10T02:10:51.953Z,3.00
2023-05-10T02:11:24.405Z,2.90
2023-05-10T02:11:56.883Z,2.50
2023-05-10T02:12:29.328Z,3.70
2023-05-10T02:13:01.923Z,4.10
2023-05-10T02:13:34.354Z,2.90
2023-05-10T02:14:06.835Z,2.60
2023-05-10T02:14:39.343Z,3.40
2023-05-10T02:15:11.805Z,5.60
2023-05-10T02:15:44.252Z,5.70
2023-05-10T02:16:16.747Z,3.60
2023-05-10T02:16:49.213Z,4.30
2023-05-10T02:17:21.757Z,3.90
2023-05-10T02:17:54.268Z,3.80
2023-05-10T02:18:26.736Z,3.80
2023-05-10T02:18:59.186Z,3.30
2023-05-10T02:19:31.632Z,3.90
2023-05-10T02:20:04.116Z,3.60
2023-05-10T02:20:36.637Z,3.10
2023-05-10T02:21:09.140Z,3.20
2023-05-10T02:21:41.627Z,3.70
2023-05-10T02:22:14.083Z,4.60
2023-05-10T02:22:46.648Z,4.40
2023-05-10T02:23:19.072Z,4.70
2023-05-10T02:23:51.655Z,3.70
2023-05-10T02:24:24.139Z,3.50
2023-05-10T02:24:56.578Z,4.70
2023-05-10T02:25:29.109Z,4.70
2023-05-10T02:26:01.575Z,3.50
2023-05-10T02:26:34.044Z,3.00
2023-05-10T02:27:06.514Z,3.60
2023-05-10T02:27:38.966Z,4.40
2023-05-10T02:28:11.526Z,6.00
2023-05-10T02:28:43.970Z,6.10
2023-05-10T02:29:16.451Z,5.30
2023-05-10T02:29:48.903Z,5.50
2023-05-10T02:30:21.397Z,5.00
2023-05-10T02:30:53.842Z,7.90
2023-05-10T02:31:26.374Z,6.80
2023-05-10T02:31:58.858Z,4.20
2023-05-10T02:32:31.344Z,4.70
2023-05-10T02:33:03.874Z,3.90
2023-05-10T02:33:36.251Z,4.00
2023-05-10T02:34:08.738Z,3.80
2023-05-10T02:34:41.202Z,4.20
2023-05-10T02:35:13.659Z,4.70
2023-05-10T02:35:46.146Z,5.80
2023-05-10T02:36:18.688Z,4.70
2023-05-10T02:36:51.098Z,3.90
2023-05-10T02:37:23.555Z,4.40
2023-05-10T02:37:56.034Z,5.00
2023-05-10T02:38:28.524Z,5.40
2023-05-10T02:39:00.981Z,6.10
2023-05-10T02:39:33.454Z,5.60
2023-05-10T02:40:05.898Z,5.30
2023-05-10T02:40:38.356Z,5.70
2023-05-10T02:41:10.796Z,5.70
2023-05-10T02:41:43.310Z,7.10
2023-05-10T02:42:15.749Z,6.80
2023-05-10T02:42:48.253Z,5.60
2023-05-10T02:43:20.735Z,6.80
2023-05-10T02:43:53.164Z,5.80
2023-05-10T02:44:25.636Z,5.90
2023-05-10T02:44:58.122Z,7.20
2023-05-10T02:45:30.611Z,5.20
2023-05-10T02:46:03.076Z,6.10
2023-05-10T02:46:35.803Z,6.30
2023-05-10T02:47:08.043Z,5.30
2023-05-10T02:47:40.522Z,5.60
2023-05-10T02:48:12.979Z,6.70
2023-05-10T02:48:45.465Z,6.70
2023-05-10T02:49:17.967Z,6.80
2023-05-10T02:49:50.459Z,6.60
2023-05-10T02:50:22.973Z,7.00
2023-05-10T02:50:55.411Z,7.50
2023-05-10T02:51:27.861Z,6.70
2023-05-10T02:52:00.339Z,6.50
2023-05-10T02:52:32.805Z,7.50
2023-05-10T02:53:05.244Z,8.30
2023-05-10T02:53:37.691Z,6.70
2023-05-10T02:54:10.157Z,6.40
2023-05-10T02:54:42.692Z,6.70
2023-05-10T02:55:15.148Z,7.90
2023-05-10T02:55:47.664Z,9.20
2023-05-10T02:56:20.120Z,11.60
2023-05-10T02:56:52.673Z,10.00
2023-05-10T02:57:25.130Z,7.00
2023-05-10T02:57:57.592Z,7.40
2023-05-10T02:58:30.041Z,7.60
2023-05-10T02:59:02.525Z,6.70
2023-05-10T02:59:35.024Z,5.80
2023-05-10T03:00:07.452Z,5.70
2023-05-10T03:00:39.919Z,5.70
2023-05-10T03:01:12.394Z,8.10
2023-05-10T03:01:44.843Z,9.00
2023-05-10T03:02:17.289Z,7.70
2023-05-10T03:02:49.838Z,8.50
2023-05-10T03:03:22.242Z,8.40
2023-05-10T03:03:54.942Z,7.90
2023-05-10T03:04:27.482Z,6.90
2023-05-10T03:04:59.974Z,6.00
2023-05-10T03:05:32.648Z,6.90
2023-05-10T03:06:05.078Z,7.30
2023-05-10T03:06:37.623Z,6.50
2023-05-10T03:07:10.300Z,9.40
2023-05-10T03:07:42.494Z,10.80
2023-05-10T03:08:15.157Z,8.10
2023-05-10T03:08:47.610Z,8.20
2023-05-10T03:09:20.131Z,6.90
2023-05-10T03:09:52.560Z,7.20
2023-05-10T03:10:25.010Z,7.20
2023-05-10T03:10:57.981Z,8.30
2023-05-10T03:11:30.442Z,8.50
2023-05-10T03:12:02.921Z,7.30
2023-05-10T03:12:35.355Z,7.10
2023-05-10T03:13:07.913Z,7.20
2023-05-10T03:13:40.362Z,10.40
2023-05-10T03:14:12.859Z,10.50
2023-05-10T03:14:45.358Z,7.70
2023-05-10T03:15:17.840Z,10.20
2023-05-10T03:15:50.322Z,8.10
2023-05-10T03:16:22.902Z,7.00
2023-05-10T03:16:55.244Z,6.80
2023-05-10T03:17:27.766Z,8.90
2023-05-10T03:18:00.223Z,11.00
2023-05-10T03:18:32.701Z,9.90
2023-05-10T03:19:05.135Z,8.50
2023-05-10T03:19:37.644Z,8.20
2023-05-10T03:20:10.094Z,7.60
2023-05-10T03:20:42.588Z,7.60
2023-05-10T03:21:15.144Z,9.20
2023-05-10T03:21:47.607Z,9.60
2023-05-10T03:22:20.163Z,8.20
2023-05-10T03:22:52.632Z,8.40
2023-05-10T03:23:25.819Z,7.40
2023-05-10T03:23:58.284Z,6.90
2023-05-10T03:24:30.756Z,7.60
2023-05-10T03:25:03.225Z,7.60
2023-05-10T03:25:35.704Z,9.30
2023-05-10T03:26:08.186Z,7.60
2023-05-10T03:26:40.627Z,7.40
2023-05-10T03:27:13.187Z,7.70
2023-05-10T03:27:45.608Z,12.50
2023-05-10T03:28:18.060Z,13.40
2023-05-10T03:28:50.497Z,8.80
2023-05-10T03:29:22.986Z,9.40
2023-05-10T03:29:55.453Z,8.50
2023-05-10T03:30:27.897Z,9.10
2023-05-10T03:31:00.412Z,7.60
2023-05-10T03:31:32.867Z,7.80
2023-05-10T03:32:05.421Z,7.50
2023-05-10T03:32:37.917Z,8.80
2023-05-10T03:33:10.398Z,7.70
2023-05-10T03:33:42.931Z,7.80
2023-05-10T03:34:15.357Z,9.70
2023-05-10T03:34:47.836Z,7.50
2023-05-10T03:35:20.289Z,6.80
2023-05-10T03:35:52.730Z,7.30
2023-05-10T03:36:25.209Z,7.20
2023-05-10T03:36:57.705Z,7.20
2023-05-10T03:37:30.216Z,8.80
2023-05-10T03:38:02.674Z,9.20
2023-05-10T03:38:35.155Z,8.30
2023-05-10T03:39:07.600Z,7.70
2023-05-10T03:39:40.095Z,7.90
2023-05-10T03:40:12.528Z,8.00
2023-05-10T03:40:44.976Z,9.70
2023-05-10T03:41:17.482Z,12.50
2023-05-10T03:41:49.987Z,7.50
2023-05-10T03:42:22.574Z,7.80
2023-05-10T03:42:55.125Z,9.70
2023-05-10T03:43:27.703Z,6.50
2023-05-10T03:44:00.228Z,6.00
2023-05-10T03:44:32.606Z,10.60
2023-05-10T03:45:05.104Z,8.60
2023-05-10T03:45:37.604Z,9.80
2023-05-10T03:46:10.036Z,8.70
2023-05-10T03:46:42.496Z,7.90
2023-05-10T03:47:14.915Z,9.60
2023-05-10T03:47:47.381Z,8.80
2023-05-10T03:48:19.812Z,7.80
2023-05-10T03:48:52.291Z,7.70
2023-05-10T03:49:24.756Z,7.40
2023-05-10T03:49:57.276Z,11.90
2023-05-10T03:50:29.743Z,12.90
2023-05-10T03:51:02.257Z,9.30
2023-05-10T03:51:34.702Z,9.60
2023-05-10T03:52:07.152Z,12.50
2023-05-10T03:52:39.663Z,11.50
2023-05-10T03:53:12.206Z,9.50
2023-05-10T03:53:44.729Z,10.60
2023-05-10T03:54:17.211Z,10.40
2023-05-10T03:54:49.685Z,10.00
2023-05-10T03:55:22.178Z,9.00
2023-05-10T03:55:54.622Z,7.80
2023-05-10T03:56:27.110Z,8.00
2023-05-10T03:56:59.555Z,9.70
2023-05-10T03:57:32.001Z,10.70
2023-05-10T03:58:04.434Z,11.20
2023-05-10T03:58:36.938Z,7.80
2023-05-10T03:59:09.378Z,6.90
2023-05-10T03:59:41.888Z,7.00
2023-05-10T04:00:14.532Z,8.50
2023-05-10T04:00:46.828Z,8.40
2023-05-10T04:01:19.289Z,9.50
2023-05-10T04:01:51.806Z,10.00
2023-05-10T04:02:24.326Z,9.80
2023-05-10T04:02:56.802Z,8.90
2023-05-10T04:03:29.208Z,10.10
2023-05-10T04:04:01.650Z,10.50
2023-05-10T04:04:34.141Z,10.50
2023-05-10T04:05:06.625Z,11.80
2023-05-10T04:05:39.126Z,10.40
2023-05-10T04:06:11.626Z,10.70
2023-05-10T04:06:44.140Z,11.80
2023-05-10T04:07:16.570Z,10.70
2023-05-10T04:07:49.046Z,9.30
2023-05-10T04:08:21.517Z,9.00
2023-05-10T04:08:53.970Z,11.50
2023-05-10T04:09:26.414Z,11.90
2023-05-10T04:09:58.898Z,8.00
2023-05-10T04:10:31.356Z,7.30
2023-05-10T04:11:03.804Z,11.00
2023-05-10T04:11:36.300Z,11.50
2023-05-10T04:12:10.757Z,9.00
2023-05-10T04:12:41.179Z,8.10
2023-05-10T04:13:13.740Z,8.50
2023-05-10T04:13:46.134Z,8.80
2023-05-10T04:14:18.661Z,8.70
2023-05-10T04:14:51.095Z,10.00
2023-05-10T04:15:23.612Z,9.90
2023-05-10T04:15:56.116Z,9.40
2023-05-10T04:16:35.638Z,9.60
2023-05-10T04:17:08.280Z,9.20
2023-05-10T04:17:40.737Z,9.00
2023-05-10T04:18:13.067Z,9.10
2023-05-10T04:18:45.521Z,7.60
2023-05-10T04:19:18.012Z,7.80
2023-05-10T04:19:50.496Z,9.10
2023-05-10T04:20:22.984Z,9.30
2023-05-10T04:20:55.426Z,8.30
2023-05-10T04:21:27.909Z,7.80
2023-05-10T04:22:00.395Z,8.80
2023-05-10T04:22:32.826Z,8.40
2023-05-10T04:23:05.324Z,10.10
2023-05-10T04:23:37.772Z,10.40
2023-05-10T04:24:10.224Z,9.30
2023-05-10T04:24:42.673Z,8.10
2023-05-10T04:25:15.157Z,8.40
2023-05-10T04:25:47.635Z,8.50
2023-05-10T04:26:20.099Z,6.80
2023-05-10T04:26:52.559Z,7.60
2023-05-10T04:27:25.021Z,8.80
2023-05-10T04:27:57.495Z,7.90
2023-05-10T04:28:29.969Z,9.20
2023-05-10T04:29:02.452Z,9.10
2023-05-10T04:29:35.009Z,8.80
2023-05-10T04:30:07.449Z,8.50
2023-05-10T04:30:40.049Z,8.40
2023-05-10T04:31:12.626Z,7.40
2023-05-10T04:31:44.951Z,7.20
2023-05-10T04:32:17.414Z,7.70
2023-05-10T04:32:49.896Z,7.90
2023-05-10T04:33:22.341Z,10.30
2023-05-10T04:33:54.817Z,10.00
2023-05-10T04:34:27.264Z,7.70
2023-05-10T04:34:59.720Z,7.20
2023-05-10T04:35:32.200Z,7.20
2023-05-10T04:36:04.703Z,9.70
2023-05-10T04:36:37.214Z,11.70
2023-05-10T04:37:09.660Z,10.60
2023-05-10T04:37:42.143Z,10.30
2023-05-10T04:38:14.610Z,8.20
2023-05-10T04:38:47.054Z,8.60
2023-05-10T04:39:19.543Z,7.70
2023-05-10T04:39:52.030Z,6.10
2023-05-10T04:40:24.497Z,7.20
2023-05-10T04:40:56.946Z,9.00
2023-05-10T04:41:29.455Z,12.00
2023-05-10T04:42:01.918Z,10.20
2023-05-10T04:42:34.373Z,9.40
2023-05-10T04:43:06.816Z,11.40
2023-05-10T04:43:39.441Z,10.20
2023-05-10T04:44:11.733Z,9.70
2023-05-10T04:44:44.194Z,9.20
2023-05-10T04:45:16.662Z,10.80
2023-05-10T04:45:49.129Z,11.50
2023-05-10T04:46:21.607Z,9.40
2023-05-10T04:46:54.046Z,9.10
2023-05-10T04:47:26.511Z,11.00
2023-05-10T04:47:58.980Z,11.60
2023-05-10T04:48:31.449Z,12.20
2023-05-10T04:49:03.885Z,10.70
2023-05-10T04:49:36.390Z,12.70
2023-05-10T04:50:08.877Z,13.10
2023-05-10T04:50:41.333Z,12.50
2023-05-10T04:51:13.792Z,12.70
2023-05-10T04:51:46.261Z,13.40
2023-05-10T04:52:18.704Z,16.20
2023-05-10T04:52:51.588Z,17.20
2023-05-10T04:53:23.567Z,13.30
2023-05-10T04:54:05.179Z,11.30
2023-05-10T04:54:28.463Z,10.30
2023-05-10T04:55:00.942Z,9.80
2023-05-10T04:55:33.446Z,11.40
2023-05-10T04:56:05.884Z,13.00
2023-05-10T04:56:38.351Z,13.10
2023-05-10T04:57:10.817Z,12.30
2023-05-10T04:57:43.272Z,11.20
2023-05-10T04:58:15.726Z,13.20
2023-05-10T04:58:48.195Z,12.80
2023-05-10T04:59:20.686Z,12.20
2023-05-10T04:59:53.136Z,12.90
2023-05-10T05:00:25.591Z,13.50
2023-05-10T05:00:58.052Z,15.30
2023-05-10T05:01:30.539Z,17.40
2023-05-10T05:02:03.028Z,18.80
2023-05-10T05:02:35.505Z,15.40
2023-05-10T05:03:07.871Z,16.10
2023-05-10T05:03:40.396Z,14.50
2023-05-10T05:04:12.705Z,14.60
2023-05-10T05:04:45.174Z,19.60
2023-05-10T05:05:17.637Z,19.00
2023-05-10T05:05:50.092Z,16.90
2023-05-10T05:06:22.561Z,16.00
2023-05-10T05:06:55.011Z,17.00
2023-05-10T05:07:27.439Z,15.90
2023-05-10T05:07:59.874Z,20.10
2023-05-10T05:08:32.318Z,22.30
2023-05-10T05:09:04.779Z,16.40
2023-05-10T05:09:37.265Z,13.80
2023-05-10T05:10:09.712Z,15.30
2023-05-10T05:10:42.196Z,15.10
2023-05-10T05:11:14.667Z,18.20
2023-05-10T05:11:47.106Z,19.10
2023-05-10T05:12:19.578Z,16.20
2023-05-10T05:12:52.080Z,16.10
2023-05-10T05:13:24.575Z,16.10
2023-05-10T05:13:56.954Z,17.90
2023-05-10T05:14:29.418Z,19.00
2023-05-10T05:15:01.875Z,18.70
2023-05-10T05:15:34.340Z,17.20
2023-05-10T05:16:06.833Z,17.00
2023-05-10T05:16:39.396Z,17.30
2023-05-10T05:17:11.725Z,16.00
2023-05-10T05:17:44.167Z,18.70
2023-05-10T05:18:16.626Z,20.40
2023-05-10T05:18:49.102Z,19.10
2023-05-10T05:19:21.551Z,21.20
2023-05-10T05:19:53.999Z,21.30
2023-05-10T05:20:26.448Z,16.50
2023-05-10T05:20:58.915Z,19.60
2023-05-10T05:21:31.384Z,23.00
2023-05-10T05:22:03.823Z,26.50
2023-05-10T05:22:36.334Z,24.10
2023-05-10T05:23:08.806Z,19.30
2023-05-10T05:23:41.274Z,15.20
2023-05-10T05:24:13.804Z,20.20
2023-05-10T05:24:46.263Z,21.30
2023-05-10T05:25:18.736Z,20.30
2023-05-10T05:25:51.216Z,19.90
2023-05-10T05:26:23.636Z,20.90
2023-05-10T05:26:56.081Z,19.40
2023-05-10T05:27:28.546Z,20.30
2023-05-10T05:28:00.996Z,21.50
2023-05-10T05:28:33.497Z,21.30
2023-05-10T05:29:05.959Z,22.10
2023-05-10T05:29:38.414Z,28.60
2023-05-10T05:30:10.859Z,29.60
2023-05-10T05:30:43.308Z,23.60
2023-05-10T05:31:15.843Z,24.30
2023-05-10T05:31:48.280Z,27.30
2023-05-10T05:32:20.692Z,30.50
2023-05-10T05:32:53.354Z,29.20
2023-05-10T05:33:25.708Z,29.50
2023-05-10T05:33:58.178Z,26.10
2023-05-10T05:34:30.608Z,25.10
2023-05-10T05:35:03.077Z,26.80
2023-05-10T05:35:35.543Z,25.60
2023-05-10T05:36:07.978Z,24.00
2023-05-10T05:36:40.428Z,23.60
2023-05-10T05:37:12.911Z,19.80
2023-05-10T05:37:45.369Z,20.90
2023-05-10T05:38:17.902Z,25.20
2023-05-10T05:38:50.280Z,28.90
2023-05-10T05:39:22.717Z,36.80
2023-05-10T05:39:55.177Z,36.00
2023-05-10T05:40:27.633Z,31.40
2023-05-10T05:41:00.133Z,27.00
2023-05-10T05:41:32.543Z,25.20
2023-05-10T05:42:05.016Z,28.00
2023-05-10T05:42:37.499Z,28.40
2023-05-10T05:43:09.955Z,32.40
2023-05-10T05:43:42.409Z,31.70
2023-05-10T05:44:14.834Z,26.20
2023-05-10T05:44:47.333Z,28.60
2023-05-10T05:45:20.021Z,30.00
2023-05-10T05:45:52.178Z,29.50
2023-05-10T05:46:24.717Z,30.40
2023-05-10T05:46:57.065Z,32.40
2023-05-10T05:47:29.546Z,29.90
2023-05-10T05:48:02.533Z,31.80
2023-05-10T05:48:34.959Z,34.10
2023-05-10T05:49:07.437Z,34.90
2023-05-10T05:49:39.851Z,37.30
2023-05-10T05:50:12.292Z,39.90
2023-05-10T05:50:44.699Z,34.40
2023-05-10T05:51:17.197Z,38.10
2023-05-10T05:51:49.709Z,41.40
2023-05-10T05:52:22.186Z,34.80
2023-05-10T05:52:54.616Z,38.50
2023-05-10T05:53:27.085Z,37.50
2023-05-10T05:53:59.548Z,32.60
2023-05-10T05:54:31.995Z,36.00
2023-05-10T05:55:04.559Z,36.20
2023-05-10T05:55:36.909Z,34.40
2023-05-10T05:56:09.413Z,31.10
2023-05-10T05:56:41.893Z,30.30
2023-05-10T05:57:14.357Z,35.10
2023-05-10T05:57:46.804Z,38.00
2023-05-10T05:58:19.229Z,36.60
2023-05-10T05:58:51.656Z,32.40
2023-05-10T05:59:24.099Z,35.40
2023-05-10T05:59:56.544Z,39.90
2023-05-10T06:00:29.026Z,37.20
2023-05-10T06:01:01.461Z,31.10
2023-05-10T06:01:33.917Z,34.80
2023-05-10T06:02:06.415Z,40.90
2023-05-10T06:02:38.864Z,41.20
2023-05-10T06:03:11.308Z,33.00
2023-05-10T06:03:43.773Z,41.50
2023-05-10T06:04:16.134Z,41.00
2023-05-10T06:04:48.566Z,38.90
2023-05-10T06:05:21.012Z,41.00
2023-05-10T06:05:53.454Z,41.90
2023-05-10T06:06:25.905Z,38.90
2023-05-10T06:06:58.346Z,40.50
2023-05-10T06:07:30.792Z,39.40
2023-05-10T06:08:03.213Z,38.80
2023-05-10T06:08:35.665Z,42.60
2023-05-10T06:09:08.100Z,41.40
2023-05-10T06:09:40.552Z,39.20
2023-05-10T06:10:13.003Z,38.40
2023-05-10T06:10:45.495Z,39.80
2023-05-10T06:11:17.953Z,44.40
2023-05-10T06:11:50.387Z,48.30
2023-05-10T06:12:22.840Z,39.60
2023-05-10T06:12:55.291Z,43.50
2023-05-10T06:13:27.790Z,59.30
2023-05-10T06:14:00.191Z,52.70
2023-05-10T06:14:32.633Z,45.90
2023-05-10T06:15:05.121Z,44.30
2023-05-10T06:15:37.579Z,40.20
2023-05-10T06:16:10.053Z,46.00
2023-05-10T06:16:42.500Z,49.70
2023-05-10T06:17:14.910Z,44.90
2023-05-10T06:17:47.415Z,44.90
2023-05-10T06:18:19.825Z,39.60
2023-05-10T06:18:52.305Z,48.10
2023-05-10T06:19:24.739Z,47.80
2023-05-10T06:19:57.204Z,51.00
2023-05-10T06:20:29.651Z,47.20
2023-05-10T06:21:02.128Z,42.50
2023-05-10T06:21:34.558Z,45.20
2023-05-10T06:22:07.019Z,46.90
2023-05-10T06:22:39.474Z,49.30
2023-05-10T06:23:11.900Z,43.80
2023-05-10T06:23:44.336Z,45.90
2023-05-10T06:24:16.765Z,49.00
2023-05-10T06:24:49.241Z,48.40
2023-05-10T06:25:21.675Z,50.70
2023-05-10T06:25:54.114Z,50.40
2023-05-10T06:26:26.573Z,53.00
2023-05-10T06:26:59.043Z,50.30
2023-05-10T06:27:31.492Z,50.40
2023-05-10T06:28:03.956Z,48.60
2023-05-10T06:28:36.400Z,40.60
2023-05-10T06:29:08.840Z,37.60
2023-05-10T06:29:41.301Z,39.10
2023-05-10T06:30:13.876Z,42.30
2023-05-10T06:30:46.193Z,43.10
2023-05-10T06:31:18.756Z,41.10
2023-05-10T06:31:51.256Z,44.30
2023-05-10T06:32:23.814Z,44.50
2023-05-10T06:32:56.159Z,46.00
2023-05-10T06:33:28.510Z,47.40
2023-05-10T06:34:00.962Z,43.20
2023-05-10T06:34:33.416Z,42.40
2023-05-10T06:35:05.894Z,38.60
2023-05-10T06:35:38.328Z,38.50
2023-05-10T06:36:10.790Z,41.30
2023-05-10T06:36:43.252Z,38.30
2023-05-10T06:37:15.773Z,32.40
2023-05-10T06:37:48.259Z,31.70
2023-05-10T06:38:20.737Z,35.70
2023-05-10T06:38:53.196Z,40.40
2023-05-10T06:39:25.650Z,40.40
2023-05-10T06:39:58.115Z,33.90
2023-05-10T06:40:30.581Z,40.50
2023-05-10T06:41:03.003Z,37.40
2023-05-10T06:41:35.474Z,30.70
2023-05-10T06:42:07.913Z,29.20
2023-05-10T06:42:40.345Z,30.60
2023-05-10T06:43:12.797Z,39.90
2023-05-10T06:43:45.275Z,33.40
2023-05-10T06:44:17.779Z,26.20
2023-05-10T06:44:50.252Z,31.50
2023-05-10T06:45:23.221Z,34.30
2023-05-10T06:45:55.712Z,30.70
2023-05-10T06:46:28.231Z,31.30
2023-05-10T06:47:00.635Z,42.10
2023-05-10T06:47:33.132Z,43.20
2023-05-10T06:48:05.650Z,32.80
2023-05-10T06:48:38.119Z,32.50
2023-05-10T06:49:10.602Z,31.90
2023-05-10T06:49:43.092Z,32.30
2023-05-10T06:50:15.647Z,33.20
2023-05-10T06:50:48.196Z,30.70
2023-05-10T06:51:20.674Z,28.20
2023-05-10T06:51:53.198Z,27.10
2023-05-10T06:52:26.009Z,28.10
2023-05-10T06:52:58.491Z,25.90
2023-05-10T06:53:30.981Z,22.20
2023-05-10T06:54:03.498Z,26.20
2023-05-10T06:54:35.959Z,27.90
2023-05-10T06:55:08.464Z,28.90
2023-05-10T06:55:40.914Z,30.50
2023-05-10T06:56:13.415Z,24.70
2023-05-10T06:56:45.933Z,22.70
2023-05-10T06:57:30.480Z,29.10
2023-05-10T06:57:51.427Z,33.70
2023-05-10T06:58:23.898Z,32.80
2023-05-10T06:58:56.357Z,31.40
2023-05-10T06:59:28.885Z,33.70
2023-05-10T07:00:01.322Z,34.40
2023-05-10T07:00:33.967Z,31.40
2023-05-10T07:01:06.417Z,31.30
2023-05-10T07:01:38.898Z,38.10
2023-05-10T07:02:11.381Z,38.50
2023-05-10T07:02:43.890Z,35.20
2023-05-10T07:03:16.408Z,37.20
2023-05-10T07:03:48.790Z,37.50
2023-05-10T07:04:21.259Z,35.20
2023-05-10T07:04:53.765Z,39.00